Time;durP1;ratioP1;P1;durP2;ratioP2;P2;SDS_P1;SDS_P2;PMS_P1;PMS_P2;Temp;Humidity;BMP_temperature;BMP_pressure;BME280_temperature;BME280_humidity;BME280_pressure;Samples;Min_cycle;Max_cycle;Signal;HPM_P1;HPM_P2
2022/06/12 00:01:08;;;;;;;2.92;2.50;;;;;;;;;;5132503;27;20034;-86
2022/06/12 00:03:34;;;;;;;2.92;2.55;;;;;;;;;;5127532;27;20049;-86
2022/06/12 00:06:01;;;;;;;2.70;2.40;;;;;;;;;;5114653;27;20058;-86
2022/06/12 00:08:29;;;;;;;2.95;2.42;;;;;;;;;;5131987;27;20411;-84
2022/06/12 00:10:57;;;;;;;3.08;2.33;;;;;;;;;;5129046;27;20502;-85
2022/06/12 00:13:28;;;;;;;3.45;2.60;;;;;;;;;;5131521;27;20106;-85
2022/06/12 00:15:55;;;;;;;3.45;2.65;;;;;;;;;;5133900;27;20617;-84
2022/06/12 00:18:21;;;;;;;3.47;2.45;;;;;;;;;;5130071;27;20103;-84
2022/06/12 00:20:46;;;;;;;3.30;2.70;;;;;;;;;;5107884;27;20097;-84
2022/06/12 00:23:14;;;;;;;3.03;2.70;;;;;;;;;;5131085;27;20034;-83
2022/06/12 00:25:40;;;;;;;4.55;2.72;;;;;;;;;;5133357;27;20045;-84
2022/06/12 00:28:06;;;;;;;3.10;2.33;;;;;;;;;;5114409;27;20027;-84
2022/06/12 00:30:33;;;;;;;4.25;2.80;;;;;;;;;;5133278;27;20471;-84
2022/06/12 00:32:59;;;;;;;3.92;2.58;;;;;;;;;;5113831;27;20027;-84
2022/06/12 00:35:35;;;;;;;3.13;2.50;;;;;;;;;;5133315;27;20030;-84
2022/06/12 00:38:02;;;;;;;3.00;2.30;;;;;;;;;;5133030;27;20031;-84
2022/06/12 00:40:28;;;;;;;3.53;2.55;;;;;;;;;;5133223;27;20412;-85
2022/06/12 00:42:58;;;;;;;4.00;2.80;;;;;;;;;;5133604;27;20023;-85
2022/06/12 00:45:42;;;;;;;3.38;2.88;;;;;;;;;;5133128;27;20055;-85
2022/06/12 00:48:18;;;;;;;4.00;2.67;;;;;;;;;;5133317;27;20076;-83
2022/06/12 00:51:01;;;;;;;3.90;2.80;;;;;;;;;;5111836;27;20023;-84
2022/06/12 00:53:47;;;;;;;3.05;2.60;;;;;;;;;;5114555;27;20034;-84
2022/06/12 00:56:26;;;;;;;2.72;2.17;;;;;;;;;;5131420;27;20109;-85
2022/06/12 00:59:14;;;;;;;3.00;2.70;;;;;;;;;;5132742;27;20027;-85
2022/06/12 01:01:45;;;;;;;3.88;2.53;;;;;;;;;;5132299;27;20030;-85
2022/06/12 01:06:59;;;;;;;3.00;2.42;;;;;;;;;;5133344;27;20401;-84
2022/06/12 01:09:30;;;;;;;2.65;2.35;;;;;;;;;;5133122;27;20057;-85
2022/06/12 01:11:58;;;;;;;3.00;2.70;;;;;;;;;;5132483;27;20420;-84
2022/06/12 01:14:35;;;;;;;4.63;3.20;;;;;;;;;;5130233;27;20060;-84
2022/06/12 01:17:04;;;;;;;3.05;2.60;;;;;;;;;;5133097;27;20031;-85
2022/06/12 01:19:37;;;;;;;3.50;3.13;;;;;;;;;;5129116;27;20027;-85
2022/06/12 01:22:06;;;;;;;3.20;2.90;;;;;;;;;;5132180;27;20031;-83
2022/06/12 01:24:59;;;;;;;3.22;2.80;;;;;;;;;;5131709;27;20034;-86
2022/06/12 01:27:37;;;;;;;3.08;2.45;;;;;;;;;;5131939;27;20035;-84
2022/06/12 01:30:17;;;;;;;2.67;2.40;;;;;;;;;;5114477;27;20360;-86
2022/06/12 01:33:05;;;;;;;3.20;2.47;;;;;;;;;;5112473;27;20034;-83
2022/06/12 01:35:50;;;;;;;2.90;2.45;;;;;;;;;;5132264;27;20351;-83
2022/06/12 01:38:31;;;;;;;2.58;2.17;;;;;;;;;;5132214;27;20390;-84
2022/06/12 01:41:19;;;;;;;3.58;2.50;;;;;;;;;;5114304;27;20379;-83
2022/06/12 01:44:11;;;;;;;3.35;2.35;;;;;;;;;;5091012;27;20039;-85
2022/06/12 01:46:52;;;;;;;3.28;2.40;;;;;;;;;;5130452;27;20030;-84
2022/06/12 01:49:44;;;;;;;2.50;2.30;;;;;;;;;;5112938;28;20382;-85
2022/06/12 01:52:12;;;;;;;2.80;2.45;;;;;;;;;;5099872;28;20118;-84
2022/06/12 01:54:46;;;;;;;5.25;2.60;;;;;;;;;;5113702;28;20023;-85
2022/06/12 01:57:38;;;;;;;3.88;2.83;;;;;;;;;;5131982;27;20035;-84
2022/06/12 02:00:12;;;;;;;3.20;2.90;;;;;;;;;;5066038;27;20062;-85
2022/06/12 02:02:43;;;;;;;3.03;2.40;;;;;;;;;;5113729;28;20031;-84
2022/06/12 02:05:22;;;;;;;2.92;2.63;;;;;;;;;;5131637;28;20527;-83
2022/06/12 02:08:03;;;;;;;4.32;2.72;;;;;;;;;;5131274;28;20366;-83
2022/06/12 02:10:34;;;;;;;2.70;2.40;;;;;;;;;;5131845;28;20019;-84
2022/06/12 02:13:12;;;;;;;2.78;2.28;;;;;;;;;;5132281;28;20505;-85
2022/06/12 02:15:46;;;;;;;2.58;2.38;;;;;;;;;;5130825;28;20023;-83
2022/06/12 02:18:14;;;;;;;2.83;2.50;;;;;;;;;;5131655;28;20546;-84
2022/06/12 02:20:46;;;;;;;3.13;2.67;;;;;;;;;;5132035;28;20055;-85
2022/06/12 02:23:26;;;;;;;2.88;2.50;;;;;;;;;;5130457;28;20019;-85
2022/06/12 02:25:52;;;;;;;;;;;;;;;;;;5131170;28;20531;-84
2022/06/12 02:28:28;;;;;;;3.22;2.92;;;;;;;;;;5131792;28;19911;-84
2022/06/12 02:31:01;;;;;;;2.55;2.22;;;;;;;;;;5131735;28;20027;-83
2022/06/12 02:33:35;;;;;;;3.55;2.60;;;;;;;;;;5112884;28;20034;-84
2022/06/12 02:36:04;;;;;;;2.70;2.40;;;;;;;;;;5130994;28;20075;-83
2022/06/12 02:38:47;;;;;;;2.90;2.53;;;;;;;;;;5131762;28;20034;-86
2022/06/12 02:41:48;;;;;;;2.92;2.63;;;;;;;;;;5112871;28;20027;-84
2022/06/12 02:44:36;;;;;;;3.20;2.67;;;;;;;;;;5084676;28;20042;-86
2022/06/12 02:47:21;;;;;;;3.13;2.65;;;;;;;;;;5120473;28;20031;-86
2022/06/12 02:49:49;;;;;;;3.50;2.92;;;;;;;;;;5129267;28;20019;-86
2022/06/12 02:52:35;;;;;;;3.05;2.47;;;;;;;;;;5131707;28;20047;-85
2022/06/12 02:55:04;;;;;;;3.60;2.90;;;;;;;;;;5112001;28;20472;-84
2022/06/12 02:57:38;;;;;;;2.88;2.53;;;;;;;;;;5135062;27;20063;-85
2022/06/12 03:00:12;;;;;;;3.85;2.58;;;;;;;;;;5135645;27;21603;-84
2022/06/12 03:03:00;;;;;;;2.80;2.50;;;;;;;;;;5135465;27;20034;-84
2022/06/12 03:05:28;;;;;;;3.13;2.40;;;;;;;;;;5133081;27;20027;-85
2022/06/12 03:08:03;;;;;;;2.85;2.40;;;;;;;;;;5132795;27;20030;-85
2022/06/12 03:10:37;;;;;;;2.63;2.35;;;;;;;;;;5114574;27;20023;-85
2022/06/12 03:13:05;;;;;;;2.50;2.00;;;;;;;;;;5113394;27;20019;-85
2022/06/12 03:15:41;;;;;;;2.85;2.47;;;;;;;;;;5115446;27;20027;-85
2022/06/12 03:18:11;;;;;;;3.88;2.72;;;;;;;;;;5111674;27;20027;-85
2022/06/12 03:21:08;;;;;;;2.88;2.58;;;;;;;;;;5107921;27;20122;-84
2022/06/12 03:23:52;;;;;;;2.97;2.53;;;;;;;;;;5111835;27;20035;-86
2022/06/12 03:26:32;;;;;;;2.33;2.13;;;;;;;;;;5114475;27;20026;-84
2022/06/12 03:29:18;;;;;;;3.08;2.60;;;;;;;;;;5116035;27;20049;-85
2022/06/12 03:32:13;;;;;;;3.10;2.63;;;;;;;;;;5133780;27;20023;-84
2022/06/12 03:34:50;;;;;;;2.85;2.55;;;;;;;;;;5131937;27;20043;-83
2022/06/12 03:37:30;;;;;;;2.70;2.40;;;;;;;;;;5133239;27;20058;-83
2022/06/12 03:40:07;;;;;;;2.65;2.28;;;;;;;;;;5134096;27;20150;-83
2022/06/12 03:42:35;;;;;;;2.83;2.13;;;;;;;;;;5134829;27;20096;-84
2022/06/12 03:45:15;;;;;;;2.45;2.25;;;;;;;;;;5133204;27;20356;-85
2022/06/12 03:47:43;;;;;;;2.40;1.90;;;;;;;;;;5131957;27;20041;-85
2022/06/12 03:50:15;;;;;;;2.25;2.03;;;;;;;;;;5133981;27;20412;-85
2022/06/12 03:53:00;;;;;;;2.10;1.90;;;;;;;;;;5134570;27;20034;-85
2022/06/12 03:59:07;;;;;;;2.70;2.00;;;;;;;;;;5047562;27;20049;-84
2022/06/12 04:01:33;;;;;;;1.90;1.70;;;;;;;;;;5115530;27;20039;-84
2022/06/12 04:04:00;;;;;;;2.17;1.88;;;;;;;;;;5134297;27;20027;-83
2022/06/12 04:06:29;;;;;;;2.17;1.98;;;;;;;;;;5115466;27;20023;-84
2022/06/12 04:09:00;;;;;;;2.33;2.08;;;;;;;;;;5112235;27;20075;-85
2022/06/12 04:11:28;;;;;;;3.20;2.20;;;;;;;;;;5134038;27;20091;-84
2022/06/12 04:13:53;;;;;;;3.78;2.20;;;;;;;;;;5115435;27;20505;-87
2022/06/12 04:16:56;;;;;;;2.45;2.05;;;;;;;;;;5115508;27;20051;-85
2022/06/12 04:19:24;;;;;;;2.28;2.00;;;;;;;;;;5030222;28;20045;-84
2022/06/12 04:21:59;;;;;;;3.63;2.20;;;;;;;;;;5097692;27;20483;-85
2022/06/12 04:24:46;;;;;;;2.60;2.20;;;;;;;;;;5132382;27;20360;-83
2022/06/12 04:27:28;;;;;;;3.28;2.10;;;;;;;;;;5115243;27;20106;-84
2022/06/12 04:29:58;;;;;;;2.20;2.00;;;;;;;;;;5131345;27;20469;-85
2022/06/12 04:32:24;;;;;;;2.88;2.13;;;;;;;;;;5133886;27;20485;-83
2022/06/12 04:34:51;;;;;;;3.38;2.72;;;;;;;;;;5115235;27;20432;-85
2022/06/12 04:37:20;;;;;;;4.00;2.70;;;;;;;;;;5133567;27;20437;-84
2022/06/12 04:39:48;;;;;;;3.25;2.85;;;;;;;;;;5114998;27;20053;-86
2022/06/12 04:42:15;;;;;;;3.03;2.63;;;;;;;;;;5133866;27;20023;-84
2022/06/12 04:44:41;;;;;;;3.20;2.90;;;;;;;;;;5131183;27;20031;-83
2022/06/12 04:47:07;;;;;;;3.15;2.70;;;;;;;;;;5133819;27;20029;-84
2022/06/12 04:49:35;;;;;;;2.53;2.33;;;;;;;;;;5133713;27;20027;-85
2022/06/12 04:52:04;;;;;;;3.60;2.80;;;;;;;;;;5133368;27;20062;-85
2022/06/12 04:54:31;;;;;;;3.17;2.60;;;;;;;;;;5132006;27;20023;-86
2022/06/12 04:56:58;;;;;;;2.90;2.53;;;;;;;;;;5133099;27;20041;-85
2022/06/12 04:59:24;;;;;;;3.38;2.47;;;;;;;;;;5128182;27;20023;-86
2022/06/12 05:01:50;;;;;;;2.60;2.40;;;;;;;;;;5132913;27;20458;-85
2022/06/12 05:04:17;;;;;;;3.25;2.33;;;;;;;;;;5114662;27;20116;-85
2022/06/12 05:06:44;;;;;;;2.70;2.25;;;;;;;;;;5110802;27;20035;-85
2022/06/12 05:09:11;;;;;;;2.75;2.38;;;;;;;;;;5127426;27;20026;-85
2022/06/12 05:11:37;;;;;;;3.05;2.38;;;;;;;;;;5129336;27;20022;-85
2022/06/12 05:14:02;;;;;;;3.78;2.63;;;;;;;;;;5113705;27;20038;-84
2022/06/12 05:16:35;;;;;;;2.50;2.30;;;;;;;;;;5133528;27;20027;-84
2022/06/12 05:19:03;;;;;;;3.45;2.63;;;;;;;;;;5131820;27;20467;-86
2022/06/12 05:21:30;;;;;;;2.70;2.40;;;;;;;;;;5111216;28;20024;-87
2022/06/12 05:23:56;;;;;;;3.10;2.60;;;;;;;;;;5127459;27;20041;-85
2022/06/12 05:26:23;;;;;;;2.58;2.35;;;;;;;;;;5132351;27;20077;-86
2022/06/12 05:28:49;;;;;;;2.38;2.15;;;;;;;;;;5111476;28;20046;-85
2022/06/12 05:31:16;;;;;;;3.40;2.83;;;;;;;;;;5131929;27;20462;-87
2022/06/12 05:33:43;;;;;;;4.00;3.22;;;;;;;;;;5128405;27;20015;-86
2022/06/12 05:36:12;;;;;;;3.60;2.83;;;;;;;;;;5109427;27;20046;-85
2022/06/12 05:38:39;;;;;;;3.40;3.10;;;;;;;;;;5128414;27;20031;-84
2022/06/12 05:41:05;;;;;;;2.50;2.20;;;;;;;;;;5111752;27;20263;-83
2022/06/12 05:43:30;;;;;;;2.20;2.00;;;;;;;;;;5110717;27;20031;-83
2022/06/12 05:45:56;;;;;;;2.33;1.90;;;;;;;;;;5113642;27;20042;-84
2022/06/12 05:48:22;;;;;;;2.85;1.80;;;;;;;;;;5130966;27;20387;-85
2022/06/12 05:50:50;;;;;;;3.22;2.40;;;;;;;;;;5125369;27;20042;-86
2022/06/12 05:53:16;;;;;;;2.55;2.33;;;;;;;;;;5128345;27;20026;-84
2022/06/12 05:55:42;;;;;;;2.20;1.90;;;;;;;;;;5131129;27;20416;-83
2022/06/12 05:58:08;;;;;;;2.33;1.85;;;;;;;;;;5130239;27;20068;-83
2022/06/12 06:00:33;;;;;;;2.30;2.00;;;;;;;;;;5139674;27;20092;-83
2022/06/12 06:02:59;;;;;;;2.58;2.20;;;;;;;;;;5104315;28;20042;-83
2022/06/12 06:05:26;;;;;;;2.42;2.22;;;;;;;;;;5128454;27;20019;-83
2022/06/12 06:07:51;;;;;;;2.60;2.00;;;;;;;;;;5128084;28;20475;-83
2022/06/12 06:10:21;;;;;;;2.10;1.88;;;;;;;;;;5125999;28;20019;-83
2022/06/12 06:12:46;;;;;;;2.90;2.00;;;;;;;;;;5131784;28;20095;-84
2022/06/12 06:15:12;;;;;;;2.97;2.25;;;;;;;;;;5129071;28;20114;-83
2022/06/12 06:17:38;;;;;;;3.63;2.45;;;;;;;;;;5122292;28;20031;-83
2022/06/12 06:20:05;;;;;;;2.42;2.17;;;;;;;;;;5124762;28;20035;-84
2022/06/12 06:22:31;;;;;;;3.75;3.35;;;;;;;;;;5128278;28;20356;-84
2022/06/12 06:24:57;;;;;;;2.20;1.92;;;;;;;;;;5108968;28;20027;-82
2022/06/12 06:27:22;;;;;;;2.55;2.35;;;;;;;;;;5111229;28;20026;-83
2022/06/12 06:29:48;;;;;;;3.75;2.40;;;;;;;;;;5130380;28;20027;-82
2022/06/12 06:32:13;;;;;;;2.25;2.05;;;;;;;;;;5130972;27;20027;-85
2022/06/12 06:34:40;;;;;;;2.50;2.30;;;;;;;;;;5117807;27;20026;-84
2022/06/12 06:37:08;;;;;;;2.65;2.40;;;;;;;;;;5135788;27;20051;-84
2022/06/12 06:39:34;;;;;;;2.88;2.58;;;;;;;;;;5131075;27;20052;-84
2022/06/12 06:41:59;;;;;;;3.13;2.50;;;;;;;;;;5132272;27;20019;-85
2022/06/12 06:47:10;;;;;;;3.58;3.05;;;;;;;;;;5135079;27;20118;-83
2022/06/12 06:49:35;;;;;;;3.03;2.70;;;;;;;;;;5132536;27;20019;-84
2022/06/12 06:52:01;;;;;;;3.40;3.10;;;;;;;;;;5132029;27;20482;-83
2022/06/12 06:54:26;;;;;;;3.40;3.10;;;;;;;;;;5133855;27;20023;-82
2022/06/12 06:56:52;;;;;;;3.15;2.85;;;;;;;;;;5131988;27;20053;-83
2022/06/12 06:59:18;;;;;;;3.28;2.97;;;;;;;;;;5133853;27;20035;-84
2022/06/12 07:01:44;;;;;;;2.97;2.67;;;;;;;;;;5135880;27;20023;-84
2022/06/12 07:04:10;;;;;;;3.42;3.13;;;;;;;;;;5135165;27;20502;-82
2022/06/12 07:06:35;;;;;;;3.60;3.30;;;;;;;;;;5116802;27;20038;-83
2022/06/12 07:09:03;;;;;;;4.35;3.80;;;;;;;;;;5135809;27;20019;-83
2022/06/12 07:11:28;;;;;;;3.88;3.42;;;;;;;;;;5131451;27;20026;-83
2022/06/12 07:13:56;;;;;;;3.60;3.22;;;;;;;;;;5135373;27;20030;-83
2022/06/12 07:16:24;;;;;;;3.60;2.70;;;;;;;;;;5133298;27;20027;-82
2022/06/12 07:18:49;;;;;;;3.22;2.70;;;;;;;;;;5134094;27;20027;-83
2022/06/12 07:21:15;;;;;;;3.55;2.45;;;;;;;;;;5113985;27;20027;-85
2022/06/12 07:23:41;;;;;;;2.60;2.40;;;;;;;;;;5133069;27;20021;-83
2022/06/12 07:26:16;;;;;;;2.90;2.30;;;;;;;;;;5134565;27;20152;-82
2022/06/12 07:28:42;;;;;;;2.92;2.25;;;;;;;;;;5133149;27;20034;-83
2022/06/12 07:31:08;;;;;;;2.80;2.33;;;;;;;;;;5111281;27;20113;-84
2022/06/12 07:33:34;;;;;;;2.28;2.03;;;;;;;;;;5114349;27;20034;-84
2022/06/12 07:36:00;;;;;;;3.55;2.45;;;;;;;;;;5114113;27;20051;-84
2022/06/12 07:38:27;;;;;;;2.25;2.05;;;;;;;;;;5113080;27;20037;-82
2022/06/12 07:40:58;;;;;;;4.28;2.50;;;;;;;;;;5133431;27;20026;-82
2022/06/12 07:43:26;;;;;;;4.13;3.30;;;;;;;;;;5116164;27;20027;-83
2022/06/12 07:45:51;;;;;;;2.60;2.38;;;;;;;;;;5127717;27;20030;-83
2022/06/12 07:48:19;;;;;;;3.55;2.90;;;;;;;;;;5142435;27;20019;-83
2022/06/12 07:50:45;;;;;;;3.00;2.70;;;;;;;;;;5132181;27;20057;-81
2022/06/12 07:53:12;;;;;;;4.88;4.47;;;;;;;;;;5131227;27;20050;-83
2022/06/12 07:55:38;;;;;;;3.35;3.03;;;;;;;;;;5132217;27;20031;-83
2022/06/12 07:58:04;;;;;;;3.13;2.83;;;;;;;;;;5131496;27;20540;-84
2022/06/12 08:00:31;;;;;;;3.50;3.05;;;;;;;;;;5112963;27;20022;-85
2022/06/12 08:02:57;;;;;;;2.72;2.50;;;;;;;;;;5134139;27;20030;-85
2022/06/12 08:05:23;;;;;;;3.67;2.40;;;;;;;;;;5112788;27;20126;-84
2022/06/12 08:07:49;;;;;;;2.70;2.50;;;;;;;;;;5130166;27;20034;-84
2022/06/12 08:10:15;;;;;;;3.25;2.78;;;;;;;;;;5134278;27;20054;-83
2022/06/12 08:12:42;;;;;;;2.78;2.50;;;;;;;;;;5113515;27;20075;-84
2022/06/12 08:15:12;;;;;;;3.00;2.58;;;;;;;;;;5133620;27;20387;-85
2022/06/12 08:17:37;;;;;;;2.95;2.60;;;;;;;;;;5116028;27;20046;-86
2022/06/12 08:22:49;;;;;;;4.43;2.90;;;;;;;;;;5134056;27;20084;-86
2022/06/12 08:25:15;;;;;;;3.85;2.83;;;;;;;;;;5116129;27;20026;-86
2022/06/12 08:27:40;;;;;;;3.83;3.10;;;;;;;;;;5134789;27;20107;-85
2022/06/12 08:30:08;;;;;;;4.55;3.22;;;;;;;;;;5110868;28;20027;-84
2022/06/12 08:32:35;;;;;;;4.20;3.60;;;;;;;;;;5114084;27;20046;-84
2022/06/12 08:35:06;;;;;;;23.83;21.35;;;;;;;;;;5116244;27;20030;-82
2022/06/12 08:37:37;;;;;;;5.53;5.03;;;;;;;;;;5126357;27;20046;-82
2022/06/12 08:40:08;;;;;;;3.53;3.22;;;;;;;;;;5111932;27;20038;-82
2022/06/12 08:42:44;;;;;;;3.00;2.70;;;;;;;;;;5133707;27;20054;-82
2022/06/12 08:45:15;;;;;;;5.55;2.80;;;;;;;;;;5133594;27;20034;-82
2022/06/12 08:48:19;;;;;;;3.50;2.67;;;;;;;;;;5131634;27;20125;-80
2022/06/12 08:51:08;;;;;;;3.83;3.30;;;;;;;;;;5049427;28;20032;-84
2022/06/12 08:53:49;;;;;;;3.45;3.15;;;;;;;;;;5110193;28;20041;-84
2022/06/12 08:56:36;;;;;;;2.72;2.45;;;;;;;;;;5134045;27;20031;-82
2022/06/12 08:59:27;;;;;;;4.63;3.83;;;;;;;;;;5133756;27;20030;-83
2022/06/12 09:01:53;;;;;;;3.20;2.90;;;;;;;;;;5133667;27;20019;-84
2022/06/12 09:04:23;;;;;;;3.25;2.95;;;;;;;;;;5127656;27;20031;-83
2022/06/12 09:06:58;;;;;;;3.50;3.20;;;;;;;;;;5132318;27;20023;-85
2022/06/12 09:09:42;;;;;;;3.72;3.42;;;;;;;;;;5130960;27;20056;-85
2022/06/12 09:12:17;;;;;;;2.80;2.55;;;;;;;;;;5130560;27;20030;-84
2022/06/12 09:14:54;;;;;;;2.88;2.42;;;;;;;;;;5131827;27;20387;-84
2022/06/12 09:17:44;;;;;;;3.35;3.05;;;;;;;;;;5133473;27;20030;-82
2022/06/12 09:20:20;;;;;;;3.08;2.78;;;;;;;;;;5129064;27;20027;-83
2022/06/12 09:23:02;;;;;;;2.38;2.17;;;;;;;;;;5113201;27;20034;-83
2022/06/12 09:25:53;;;;;;;2.80;2.25;;;;;;;;;;5133296;27;20031;-83
2022/06/12 09:29:05;;;;;;;2.85;2.55;;;;;;;;;;5129914;27;20493;-83
2022/06/12 09:31:47;;;;;;;2.80;2.50;;;;;;;;;;5111425;27;20479;-83
2022/06/12 09:34:27;;;;;;;2.78;2.42;;;;;;;;;;5130096;27;20083;-83
2022/06/12 09:38:18;;;;;;;4.80;3.00;;;;;;;;;;5131700;27;20041;-82
2022/06/12 09:40:03;;;;;;;2.70;2.40;;;;;;;;;;5127728;27;20062;-84
2022/06/12 09:42:46;;;;;;;3.30;3.00;;;;;;;;;;5109067;27;20596;-87
2022/06/12 09:45:27;;;;;;;4.28;3.80;;;;;;;;;;5111215;27;20027;-83
2022/06/12 09:48:05;;;;;;;6.03;4.38;;;;;;;;;;5126690;27;20055;-82
2022/06/12 09:50:49;;;;;;;2.80;2.10;;;;;;;;;;5124399;27;20022;-82
2022/06/12 09:53:36;;;;;;;3.22;2.85;;;;;;;;;;5122548;27;20041;-83
2022/06/12 09:56:22;;;;;;;4.55;2.88;;;;;;;;;;5110173;28;20020;-84
2022/06/12 09:59:13;;;;;;;3.10;2.80;;;;;;;;;;5124556;27;20457;-82
2022/06/12 10:01:43;;;;;;;2.50;2.22;;;;;;;;;;5124311;27;20356;-80
2022/06/12 10:04:21;;;;;;;2.40;2.20;;;;;;;;;;5128446;27;20038;-80
2022/06/12 10:06:51;;;;;;;2.50;2.30;;;;;;;;;;5106251;28;20031;-85
2022/06/12 10:09:38;;;;;;;2.53;2.33;;;;;;;;;;5128808;28;20073;-84
2022/06/12 10:12:17;;;;;;;3.17;2.78;;;;;;;;;;5131695;28;20041;-84
2022/06/12 10:15:08;;;;;;;2.80;2.58;;;;;;;;;;5129421;27;20038;-84
2022/06/12 10:17:41;;;;;;;2.88;2.60;;;;;;;;;;5132560;28;20474;-85
2022/06/12 10:20:13;;;;;;;2.92;2.65;;;;;;;;;;5111961;28;20039;-83
2022/06/12 10:22:47;;;;;;;3.22;2.58;;;;;;;;;;5123558;28;20118;-81
2022/06/12 10:25:27;;;;;;;2.67;2.42;;;;;;;;;;5111564;28;20106;-83
2022/06/12 10:28:04;;;;;;;3.10;2.80;;;;;;;;;;5123329;28;20061;-82
2022/06/12 10:30:38;;;;;;;2.72;2.50;;;;;;;;;;5128648;28;20109;-81
2022/06/12 10:33:25;;;;;;;2.85;2.35;;;;;;;;;;5129513;28;20066;-83
2022/06/12 10:36:00;;;;;;;3.22;2.92;;;;;;;;;;5130419;28;20031;-81
2022/06/12 10:38:36;;;;;;;2.65;2.30;;;;;;;;;;5127033;28;20394;-81
2022/06/12 10:41:18;;;;;;;5.80;4.50;;;;;;;;;;5130997;28;20019;-84
2022/06/12 10:43:47;;;;;;;3.47;2.90;;;;;;;;;;5132597;28;20056;-85
2022/06/12 10:46:19;;;;;;;3.17;2.35;;;;;;;;;;5131510;28;20023;-83
2022/06/12 10:48:58;;;;;;;2.50;2.30;;;;;;;;;;5132074;28;20027;-85
2022/06/12 10:51:29;;;;;;;7.97;6.95;;;;;;;;;;5129125;28;20026;-86
2022/06/12 10:54:00;;;;;;;2.40;2.10;;;;;;;;;;5128736;28;20022;-86
2022/06/12 10:57:03;;;;;;;2.17;1.98;;;;;;;;;;5132641;28;20023;-85
2022/06/12 10:59:31;;;;;;;2.03;1.83;;;;;;;;;;5092994;28;20060;-86
2022/06/12 11:02:34;;;;;;;3.15;2.10;;;;;;;;;;5112171;28;20030;-86
2022/06/12 11:05:08;;;;;;;2.42;1.98;;;;;;;;;;5113600;28;20079;-85
2022/06/12 11:08:03;;;;;;;1.70;1.60;;;;;;;;;;5111806;28;20023;-86
2022/06/12 11:10:57;;;;;;;2.55;2.30;;;;;;;;;;5068228;28;20041;-84
2022/06/12 11:14:12;;;;;;;1.70;1.50;;;;;;;;;;5129922;28;20081;-85
2022/06/12 11:17:12;;;;;;;2.38;2.10;;;;;;;;;;5099136;27;20031;-86
2022/06/12 11:19:46;;;;;;;5.07;4.57;;;;;;;;;;5134455;27;20106;-85
2022/06/12 11:22:30;;;;;;;1.73;1.50;;;;;;;;;;5135058;27;20027;-85
2022/06/12 11:25:08;;;;;;;2.92;1.80;;;;;;;;;;5130455;27;20041;-86
2022/06/12 11:27:41;;;;;;;2.13;1.60;;;;;;;;;;5132693;27;20042;-85
2022/06/12 11:30:25;;;;;;;1.70;1.60;;;;;;;;;;5131901;27;20047;-85
2022/06/12 11:33:28;;;;;;;2.47;1.92;;;;;;;;;;5133764;27;20098;-84
2022/06/12 11:36:18;;;;;;;1.67;1.58;;;;;;;;;;5114431;27;20020;-86
2022/06/12 11:39:04;;;;;;;3.25;1.67;;;;;;;;;;5112878;27;20378;-85
2022/06/12 11:41:41;;;;;;;3.20;2.60;;;;;;;;;;5113098;27;20068;-85
2022/06/12 11:44:27;;;;;;;2.22;1.70;;;;;;;;;;5114268;27;20032;-85
2022/06/12 11:47:15;;;;;;;3.08;1.42;;;;;;;;;;5110186;27;20057;-85
2022/06/12 11:49:59;;;;;;;2.22;2.03;;;;;;;;;;5115221;27;20128;-85
2022/06/12 11:52:43;;;;;;;2.05;1.40;;;;;;;;;;5114547;27;20491;-85
2022/06/12 11:55:22;;;;;;;2.03;1.77;;;;;;;;;;5111921;27;20034;-87
2022/06/12 11:58:13;;;;;;;2.33;2.00;;;;;;;;;;5115007;27;20800;-85
2022/06/12 12:00:54;;;;;;;5.03;2.38;;;;;;;;;;5131864;27;20976;-85
2022/06/12 12:03:58;;;;;;;2.28;1.85;;;;;;;;;;5114451;27;20031;-84
2022/06/12 12:06:46;;;;;;;3.60;2.53;;;;;;;;;;5130103;27;20027;-85
2022/06/12 12:09:18;;;;;;;1.97;1.77;;;;;;;;;;5105466;27;20032;-84
2022/06/12 12:11:48;;;;;;;4.10;3.20;;;;;;;;;;5130930;27;20023;-83
2022/06/12 12:14:23;;;;;;;2.30;1.80;;;;;;;;;;5128984;27;20101;-82
2022/06/12 12:16:58;;;;;;;2.03;1.63;;;;;;;;;;5110558;27;20590;-82
2022/06/12 12:19:31;;;;;;;1.73;1.30;;;;;;;;;;5130116;27;20027;-82
2022/06/12 12:22:15;;;;;;;3.83;2.30;;;;;;;;;;5131575;27;20102;-82
2022/06/12 12:24:49;;;;;;;2.70;1.98;;;;;;;;;;5131319;27;20019;-82
2022/06/12 12:27:27;;;;;;;2.40;1.73;;;;;;;;;;5129270;27;20030;-82
2022/06/12 12:29:55;;;;;;;2.08;1.63;;;;;;;;;;5124870;27;20019;-82
2022/06/12 12:32:20;;;;;;;9.82;8.93;;;;;;;;;;5128570;27;20023;-82
2022/06/12 12:34:51;;;;;;;4.40;4.00;;;;;;;;;;5130042;27;20034;-81
2022/06/12 12:42:45;;;;;;;2.22;1.85;;;;;;;;;;5132894;27;20048;-84
2022/06/12 12:45:10;;;;;;;2.65;1.90;;;;;;;;;;5123581;27;20019;-83
2022/06/12 12:47:36;;;;;;;1.92;1.45;;;;;;;;;;5128605;27;20072;-83
2022/06/12 12:50:15;;;;;;;1.60;1.50;;;;;;;;;;5133920;27;20023;-85
2022/06/12 12:52:48;;;;;;;1.60;1.50;;;;;;;;;;5112560;27;20027;-83
2022/06/12 12:55:32;;;;;;;1.88;1.50;;;;;;;;;;5130179;27;20027;-84
2022/06/12 12:58:00;;;;;;;1.90;1.70;;;;;;;;;;5131433;27;20034;-83
2022/06/12 13:00:35;;;;;;;1.80;1.50;;;;;;;;;;5126468;27;20031;-82
2022/06/12 13:03:28;;;;;;;1.55;1.40;;;;;;;;;;5128009;27;20365;-83
2022/06/12 13:06:07;;;;;;;2.10;1.65;;;;;;;;;;5130013;27;20026;-82
2022/06/12 13:09:03;;;;;;;43.45;39.50;;;;;;;;;;5130923;27;20039;-83
2022/06/12 13:11:47;;;;;;;172.52;137.55;;;;;;;;;;5132905;27;20050;-84
2022/06/12 13:14:29;;;;;;;163.63;126.35;;;;;;;;;;5110152;27;20023;-84
2022/06/12 13:17:12;;;;;;;253.32;216.40;;;;;;;;;;5133046;27;20478;-84
2022/06/12 13:19:58;;;;;;;1.63;1.50;;;;;;;;;;5131397;27;20026;-88
2022/06/12 13:22:40;;;;;;;1.80;1.40;;;;;;;;;;5128513;27;20027;-83
2022/06/12 13:25:17;;;;;;;1.80;1.45;;;;;;;;;;5131029;27;20041;-82
2022/06/12 13:27:55;;;;;;;4.90;3.30;;;;;;;;;;5110889;27;20031;-82
2022/06/12 13:30:31;;;;;;;4.07;3.55;;;;;;;;;;5131602;27;20023;-81
2022/06/12 13:33:17;;;;;;;3.25;2.60;;;;;;;;;;5131600;27;20057;-84
2022/06/12 13:35:54;;;;;;;3.55;2.85;;;;;;;;;;5111966;27;20050;-85
2022/06/12 13:38:22;;;;;;;1.52;1.40;;;;;;;;;;5129954;27;20487;-84
2022/06/12 13:41:05;;;;;;;1.50;1.40;;;;;;;;;;5131951;27;20463;-83
2022/06/12 13:43:35;;;;;;;4.57;4.18;;;;;;;;;;5111196;27;20034;-82
2022/06/12 13:46:05;;;;;;;18.80;17.08;;;;;;;;;;5131011;27;20035;-85
2022/06/12 13:48:37;;;;;;;49.35;45.15;;;;;;;;;;5113212;27;20106;-83
2022/06/12 13:51:08;;;;;;;1.55;1.30;;;;;;;;;;5112259;28;20039;-84
2022/06/12 13:53:42;;;;;;;2.88;2.38;;;;;;;;;;5130908;27;20030;-83
2022/06/12 13:56:12;;;;;;;2.22;1.77;;;;;;;;;;5128955;27;20421;-85
2022/06/12 13:58:40;;;;;;;1.80;1.60;;;;;;;;;;5131038;27;20069;-84
2022/06/12 14:01:22;;;;;;;3.38;2.13;;;;;;;;;;5130399;27;20397;-84
2022/06/12 14:04:05;;;;;;;2.70;2.13;;;;;;;;;;5129059;27;20404;-85
2022/06/12 14:06:41;;;;;;;3.10;2.17;;;;;;;;;;5110198;27;20030;-85
2022/06/12 14:09:17;;;;;;;5.78;2.75;;;;;;;;;;5131863;27;20023;-84
2022/06/12 14:11:44;;;;;;;6.22;2.70;;;;;;;;;;5113643;28;20382;-85
2022/06/12 14:14:35;;;;;;;13.77;3.50;;;;;;;;;;5131171;28;20107;-84
2022/06/12 14:17:04;;;;;;;6.70;3.30;;;;;;;;;;5131630;28;20152;-86
2022/06/12 14:19:32;;;;;;;11.68;3.85;;;;;;;;;;5129489;28;20023;-87
2022/06/12 14:22:18;;;;;;;5.95;3.50;;;;;;;;;;5132241;28;20042;-85
2022/06/12 14:24:56;;;;;;;5.82;3.20;;;;;;;;;;5129087;28;20110;-82
2022/06/12 14:27:34;;;;;;;5.60;3.25;;;;;;;;;;5130401;28;20026;-86
2022/06/12 14:30:06;;;;;;;4.78;3.30;;;;;;;;;;5112017;28;20030;-85
2022/06/12 14:32:44;;;;;;;4.07;3.67;;;;;;;;;;5132652;28;20038;-85
2022/06/12 14:35:09;;;;;;;3.33;2.53;;;;;;;;;;5127735;28;20020;-84
2022/06/12 14:37:41;;;;;;;2.38;2.17;;;;;;;;;;5113240;28;20669;-86
2022/06/12 14:40:29;;;;;;;2.25;2.05;;;;;;;;;;5126519;28;20023;-83
2022/06/12 14:43:24;;;;;;;4.18;2.67;;;;;;;;;;5128492;28;20070;-84
2022/06/12 14:45:58;;;;;;;3.00;2.33;;;;;;;;;;5111405;28;20477;-85
2022/06/12 14:48:32;;;;;;;3.65;2.67;;;;;;;;;;5130870;28;20118;-83
2022/06/12 14:50:58;;;;;;;3.90;2.10;;;;;;;;;;5124857;28;20498;-82
2022/06/12 14:53:24;;;;;;;2.67;2.40;;;;;;;;;;5114674;27;20066;-83
2022/06/12 14:55:51;;;;;;;7.38;2.50;;;;;;;;;;5115301;27;20019;-86
2022/06/12 14:58:28;;;;;;;4.75;2.80;;;;;;;;;;5135576;27;20027;-85
2022/06/12 15:01:01;;;;;;;3.20;2.75;;;;;;;;;;5132089;27;20060;-85
2022/06/12 15:03:27;;;;;;;3.67;3.13;;;;;;;;;;5134047;27;20075;-83
2022/06/12 15:05:53;;;;;;;5.70;3.55;;;;;;;;;;5134973;27;20038;-84
2022/06/12 15:08:20;;;;;;;4.60;3.85;;;;;;;;;;5133396;27;20144;-86
2022/06/12 15:10:46;;;;;;;4.15;3.53;;;;;;;;;;5133846;27;20038;-85
2022/06/12 15:13:15;;;;;;;5.10;3.80;;;;;;;;;;5116880;27;20035;-85
2022/06/12 15:15:40;;;;;;;11.65;10.63;;;;;;;;;;5115830;27;20398;-86
2022/06/12 15:18:06;;;;;;;7.15;5.50;;;;;;;;;;5116079;27;20049;-85
2022/06/12 15:20:32;;;;;;;3.78;3.35;;;;;;;;;;5134262;27;20039;-84
2022/06/12 15:22:57;;;;;;;4.90;3.85;;;;;;;;;;5133959;27;20026;-84
2022/06/12 15:31:10;;;;;;;4.28;3.80;;;;;;;;;;5131776;27;20062;-82
2022/06/12 15:33:36;;;;;;;3.90;3.50;;;;;;;;;;5132513;27;20073;-83
2022/06/12 15:36:02;;;;;;;4.82;3.88;;;;;;;;;;5133355;27;20069;-83
2022/06/12 15:38:27;;;;;;;4.18;3.60;;;;;;;;;;5132808;27;20027;-83
2022/06/12 15:40:53;;;;;;;4.13;3.40;;;;;;;;;;5133168;27;20148;-82
2022/06/12 15:43:20;;;;;;;3.83;3.28;;;;;;;;;;5133357;27;20068;-81
2022/06/12 15:45:46;;;;;;;3.70;3.28;;;;;;;;;;5134164;27;20485;-82
2022/06/12 15:48:12;;;;;;;4.47;3.40;;;;;;;;;;5114855;27;20046;-82